sensor_id;sensor_type;location;lat;lon;timestamp;P1;durP1;ratioP1;P2;durP2;ratioP2
40116;SDS011;25829;50.228;18.936;2023-09-30T00:01:41;12.80;;;9.88;;
40116;SDS011;25829;50.228;18.936;2023-09-30T00:04:45;15.25;;;9.93;;
40116;SDS011;25829;50.228;18.936;2023-09-30T00:07:46;18.50;;;10.15;;
40116;SDS011;25829;50.228;18.936;2023-09-30T00:10:46;12.68;;;9.20;;
40116;SDS011;25829;50.228;18.936;2023-09-30T00:13:48;13.80;;;9.38;;
40116;SDS011;25829;50.228;18.936;2023-09-30T00:16:49;14.50;;;10.18;;
40116;SDS011;25829;50.228;18.936;2023-09-30T00:19:50;16.35;;;9.90;;
40116;SDS011;25829;50.228;18.936;2023-09-30T00:22:51;12.05;;;8.88;;
40116;SDS011;25829;50.228;18.936;2023-09-30T00:25:55;12.88;;;9.38;;
40116;SDS011;25829;50.228;18.936;2023-09-30T00:28:56;14.95;;;9.35;;
40116;SDS011;25829;50.228;18.936;2023-09-30T00:31:57;16.05;;;10.30;;
40116;SDS011;25829;50.228;18.936;2023-09-30T00:34:58;13.60;;;9.35;;
40116;SDS011;25829;50.228;18.936;2023-09-30T00:37:59;11.45;;;9.82;;
40116;SDS011;25829;50.228;18.936;2023-09-30T00:41:00;14.05;;;9.82;;
40116;SDS011;25829;50.228;18.936;2023-09-30T00:44:00;12.15;;;9.63;;
40116;SDS011;25829;50.228;18.936;2023-09-30T00:47:01;10.80;;;9.23;;
40116;SDS011;25829;50.228;18.936;2023-09-30T00:50:06;11.73;;;9.52;;
40116;SDS011;25829;50.228;18.936;2023-09-30T01:10:36;16.63;;;9.32;;
40116;SDS011;25829;50.228;18.936;2023-09-30T01:13:37;10.82;;;9.63;;
40116;SDS011;25829;50.228;18.936;2023-09-30T01:16:43;13.40;;;9.55;;
40116;SDS011;25829;50.228;18.936;2023-09-30T01:19:43;10.52;;;9.25;;
40116;SDS011;25829;50.228;18.936;2023-09-30T01:40:44;16.15;;;10.32;;
40116;SDS011;25829;50.228;18.936;2023-09-30T01:43:46;11.25;;;9.48;;
40116;SDS011;25829;50.228;18.936;2023-09-30T01:46:48;14.23;;;9.93;;
40116;SDS011;25829;50.228;18.936;2023-09-30T01:49:49;12.80;;;9.55;;
40116;SDS011;25829;50.228;18.936;2023-09-30T01:52:49;12.40;;;9.65;;
40116;SDS011;25829;50.228;18.936;2023-09-30T01:55:50;14.43;;;9.25;;
40116;SDS011;25829;50.228;18.936;2023-09-30T01:58:51;13.38;;;9.75;;
40116;SDS011;25829;50.228;18.936;2023-09-30T02:01:52;12.70;;;9.02;;
40116;SDS011;25829;50.228;18.936;2023-09-30T02:04:52;12.65;;;9.35;;
40116;SDS011;25829;50.228;18.936;2023-09-30T02:07:53;10.63;;;9.52;;
40116;SDS011;25829;50.228;18.936;2023-09-30T02:10:55;15.20;;;9.00;;
40116;SDS011;25829;50.228;18.936;2023-09-30T02:13:56;11.68;;;9.27;;
40116;SDS011;25829;50.228;18.936;2023-09-30T02:16:58;13.52;;;9.52;;
40116;SDS011;25829;50.228;18.936;2023-09-30T02:19:59;14.63;;;8.98;;
40116;SDS011;25829;50.228;18.936;2023-09-30T02:23:01;13.85;;;9.00;;
40116;SDS011;25829;50.228;18.936;2023-09-30T02:26:02;16.70;;;8.18;;
40116;SDS011;25829;50.228;18.936;2023-09-30T02:29:03;12.52;;;8.25;;
40116;SDS011;25829;50.228;18.936;2023-09-30T02:32:04;14.57;;;9.05;;
40116;SDS011;25829;50.228;18.936;2023-09-30T02:35:05;11.77;;;8.07;;
40116;SDS011;25829;50.228;18.936;2023-09-30T02:38:06;9.95;;;7.85;;
40116;SDS011;25829;50.228;18.936;2023-09-30T02:41:09;15.90;;;9.00;;
40116;SDS011;25829;50.228;18.936;2023-09-30T02:44:10;11.43;;;8.80;;
40116;SDS011;25829;50.228;18.936;2023-09-30T02:47:11;11.75;;;8.27;;
40116;SDS011;25829;50.228;18.936;2023-09-30T02:50:12;11.95;;;7.78;;
40116;SDS011;25829;50.228;18.936;2023-09-30T02:53:13;11.70;;;8.35;;
40116;SDS011;25829;50.228;18.936;2023-09-30T02:56:14;15.93;;;8.55;;
40116;SDS011;25829;50.228;18.936;2023-09-30T02:59:15;10.10;;;8.63;;
40116;SDS011;25829;50.228;18.936;2023-09-30T03:02:17;10.75;;;8.15;;
40116;SDS011;25829;50.228;18.936;2023-09-30T03:05:18;10.32;;;8.48;;
40116;SDS011;25829;50.228;18.936;2023-09-30T03:08:20;11.80;;;7.60;;
40116;SDS011;25829;50.228;18.936;2023-09-30T03:11:22;10.23;;;8.27;;
40116;SDS011;25829;50.228;18.936;2023-09-30T03:14:23;8.77;;;7.85;;
40116;SDS011;25829;50.228;18.936;2023-09-30T03:17:24;9.63;;;7.55;;
40116;SDS011;25829;50.228;18.936;2023-09-30T03:20:26;12.20;;;8.68;;
40116;SDS011;25829;50.228;18.936;2023-09-30T03:23:27;8.65;;;7.53;;
40116;SDS011;25829;50.228;18.936;2023-09-30T03:26:31;12.20;;;7.70;;
40116;SDS011;25829;50.228;18.936;2023-09-30T03:29:31;11.95;;;8.43;;
40116;SDS011;25829;50.228;18.936;2023-09-30T03:32:32;12.93;;;8.40;;
40116;SDS011;25829;50.228;18.936;2023-09-30T03:35:42;12.73;;;8.07;;
40116;SDS011;25829;50.228;18.936;2023-09-30T03:38:43;10.07;;;8.38;;
40116;SDS011;25829;50.228;18.936;2023-09-30T03:41:45;12.43;;;8.45;;
40116;SDS011;25829;50.228;18.936;2023-09-30T03:44:45;11.93;;;8.80;;
40116;SDS011;25829;50.228;18.936;2023-09-30T03:47:46;11.57;;;8.35;;
40116;SDS011;25829;50.228;18.936;2023-09-30T03:50:48;9.18;;;8.20;;
40116;SDS011;25829;50.228;18.936;2023-09-30T03:53:49;10.10;;;8.45;;
40116;SDS011;25829;50.228;18.936;2023-09-30T03:56:50;12.30;;;8.35;;
40116;SDS011;25829;50.228;18.936;2023-09-30T03:59:54;11.73;;;8.38;;
40116;SDS011;25829;50.228;18.936;2023-09-30T04:02:56;10.40;;;8.15;;
40116;SDS011;25829;50.228;18.936;2023-09-30T04:05:59;11.32;;;8.15;;
40116;SDS011;25829;50.228;18.936;2023-09-30T04:08:59;9.82;;;8.43;;
40116;SDS011;25829;50.228;18.936;2023-09-30T04:12:02;12.55;;;8.10;;
40116;SDS011;25829;50.228;18.936;2023-09-30T04:15:04;9.48;;;7.80;;
40116;SDS011;25829;50.228;18.936;2023-09-30T04:18:35;10.65;;;7.88;;
40116;SDS011;25829;50.228;18.936;2023-09-30T04:21:39;12.73;;;8.30;;
40116;SDS011;25829;50.228;18.936;2023-09-30T04:24:56;17.23;;;8.65;;
40116;SDS011;25829;50.228;18.936;2023-09-30T04:28:00;11.95;;;8.05;;
40116;SDS011;25829;50.228;18.936;2023-09-30T04:31:10;10.48;;;8.13;;
40116;SDS011;25829;50.228;18.936;2023-09-30T04:34:27;11.18;;;7.65;;
40116;SDS011;25829;50.228;18.936;2023-09-30T04:37:31;10.73;;;7.82;;
40116;SDS011;25829;50.228;18.936;2023-09-30T04:40:36;12.68;;;7.57;;
40116;SDS011;25829;50.228;18.936;2023-09-30T04:43:55;9.30;;;7.63;;
40116;SDS011;25829;50.228;18.936;2023-09-30T04:47:01;8.38;;;7.25;;
40116;SDS011;25829;50.228;18.936;2023-09-30T04:50:06;8.25;;;6.97;;
40116;SDS011;25829;50.228;18.936;2023-09-30T04:53:16;8.05;;;7.03;;
40116;SDS011;25829;50.228;18.936;2023-09-30T04:56:39;9.48;;;7.32;;
40116;SDS011;25829;50.228;18.936;2023-09-30T05:00:02;9.15;;;7.38;;
40116;SDS011;25829;50.228;18.936;2023-09-30T05:03:28;8.95;;;7.32;;
40116;SDS011;25829;50.228;18.936;2023-09-30T05:11:24;9.55;;;7.90;;
40116;SDS011;25829;50.228;18.936;2023-09-30T05:14:25;11.23;;;7.70;;
40116;SDS011;25829;50.228;18.936;2023-09-30T05:17:25;9.27;;;7.00;;
40116;SDS011;25829;50.228;18.936;2023-09-30T05:24:26;9.43;;;6.78;;
40116;SDS011;25829;50.228;18.936;2023-09-30T05:28:17;12.50;;;7.25;;
40116;SDS011;25829;50.228;18.936;2023-09-30T05:35:48;10.95;;;6.82;;
40116;SDS011;25829;50.228;18.936;2023-09-30T05:38:50;11.43;;;7.60;;
40116;SDS011;25829;50.228;18.936;2023-09-30T05:41:51;10.40;;;7.50;;
40116;SDS011;25829;50.228;18.936;2023-09-30T05:48:15;8.50;;;6.95;;
40116;SDS011;25829;50.228;18.936;2023-09-30T05:51:16;8.75;;;7.20;;
40116;SDS011;25829;50.228;18.936;2023-09-30T05:54:30;8.25;;;7.13;;
40116;SDS011;25829;50.228;18.936;2023-09-30T05:57:47;11.55;;;7.47;;
40116;SDS011;25829;50.228;18.936;2023-09-30T06:01:18;8.07;;;7.20;;
40116;SDS011;25829;50.228;18.936;2023-09-30T06:04:19;11.65;;;7.82;;
40116;SDS011;25829;50.228;18.936;2023-09-30T06:07:24;9.30;;;7.05;;
40116;SDS011;25829;50.228;18.936;2023-09-30T06:10:34;7.72;;;6.95;;
40116;SDS011;25829;50.228;18.936;2023-09-30T06:13:38;8.05;;;7.25;;
40116;SDS011;25829;50.228;18.936;2023-09-30T06:20:15;9.43;;;7.65;;
40116;SDS011;25829;50.228;18.936;2023-09-30T06:27:30;8.07;;;7.28;;
40116;SDS011;25829;50.228;18.936;2023-09-30T06:30:48;10.93;;;7.10;;
40116;SDS011;25829;50.228;18.936;2023-09-30T06:34:41;7.68;;;6.72;;
40116;SDS011;25829;50.228;18.936;2023-09-30T06:37:53;8.93;;;7.28;;
40116;SDS011;25829;50.228;18.936;2023-09-30T06:41:20;9.32;;;7.45;;
40116;SDS011;25829;50.228;18.936;2023-09-30T06:44:27;11.57;;;8.15;;
40116;SDS011;25829;50.228;18.936;2023-09-30T06:51:15;10.48;;;7.90;;
40116;SDS011;25829;50.228;18.936;2023-09-30T06:54:44;7.78;;;7.05;;
40116;SDS011;25829;50.228;18.936;2023-09-30T06:57:47;9.93;;;7.95;;
40116;SDS011;25829;50.228;18.936;2023-09-30T07:00:51;9.32;;;7.22;;
40116;SDS011;25829;50.228;18.936;2023-09-30T07:04:04;8.02;;;7.13;;
40116;SDS011;25829;50.228;18.936;2023-09-30T07:07:09;11.95;;;8.25;;
40116;SDS011;25829;50.228;18.936;2023-09-30T07:10:10;9.32;;;7.63;;
40116;SDS011;25829;50.228;18.936;2023-09-30T07:13:11;8.68;;;7.53;;
40116;SDS011;25829;50.228;18.936;2023-09-30T07:16:12;10.68;;;7.47;;
40116;SDS011;25829;50.228;18.936;2023-09-30T07:19:13;8.40;;;7.18;;
40116;SDS011;25829;50.228;18.936;2023-09-30T07:22:18;10.18;;;7.45;;
40116;SDS011;25829;50.228;18.936;2023-09-30T07:25:19;9.57;;;7.85;;
40116;SDS011;25829;50.228;18.936;2023-09-30T07:28:19;9.90;;;7.88;;
40116;SDS011;25829;50.228;18.936;2023-09-30T07:31:35;11.63;;;7.90;;
40116;SDS011;25829;50.228;18.936;2023-09-30T07:34:43;7.60;;;6.82;;
40116;SDS011;25829;50.228;18.936;2023-09-30T07:40:59;20.02;;;7.90;;
40116;SDS011;25829;50.228;18.936;2023-09-30T07:44:07;9.23;;;8.05;;
40116;SDS011;25829;50.228;18.936;2023-09-30T07:47:11;9.48;;;7.47;;
40116;SDS011;25829;50.228;18.936;2023-09-30T07:50:12;12.38;;;7.68;;
40116;SDS011;25829;50.228;18.936;2023-09-30T07:53:13;10.00;;;7.38;;
40116;SDS011;25829;50.228;18.936;2023-09-30T07:56:14;8.77;;;7.55;;
40116;SDS011;25829;50.228;18.936;2023-09-30T07:59:15;10.20;;;7.10;;
40116;SDS011;25829;50.228;18.936;2023-09-30T08:02:16;11.63;;;6.95;;
40116;SDS011;25829;50.228;18.936;2023-09-30T08:05:28;9.55;;;7.40;;
40116;SDS011;25829;50.228;18.936;2023-09-30T08:08:29;10.05;;;7.68;;
40116;SDS011;25829;50.228;18.936;2023-09-30T08:11:30;12.77;;;8.57;;
40116;SDS011;25829;50.228;18.936;2023-09-30T08:14:33;11.80;;;8.68;;
40116;SDS011;25829;50.228;18.936;2023-09-30T08:17:34;13.35;;;7.82;;
40116;SDS011;25829;50.228;18.936;2023-09-30T08:20:34;10.55;;;7.63;;
40116;SDS011;25829;50.228;18.936;2023-09-30T08:23:40;9.73;;;7.57;;
40116;SDS011;25829;50.228;18.936;2023-09-30T08:26:41;10.65;;;7.65;;
40116;SDS011;25829;50.228;18.936;2023-09-30T08:29:48;11.05;;;8.20;;
40116;SDS011;25829;50.228;18.936;2023-09-30T08:33:05;9.20;;;7.55;;
40116;SDS011;25829;50.228;18.936;2023-09-30T08:36:09;9.70;;;8.27;;
40116;SDS011;25829;50.228;18.936;2023-09-30T08:39:24;10.20;;;7.75;;
40116;SDS011;25829;50.228;18.936;2023-09-30T08:42:28;9.57;;;7.85;;
40116;SDS011;25829;50.228;18.936;2023-09-30T08:45:54;9.55;;;7.85;;
40116;SDS011;25829;50.228;18.936;2023-09-30T08:49:06;8.90;;;7.57;;
40116;SDS011;25829;50.228;18.936;2023-09-30T08:52:09;11.93;;;8.18;;
40116;SDS011;25829;50.228;18.936;2023-09-30T08:55:31;9.65;;;8.23;;
40116;SDS011;25829;50.228;18.936;2023-09-30T08:58:42;10.95;;;8.10;;
40116;SDS011;25829;50.228;18.936;2023-09-30T09:01:46;9.75;;;8.43;;
40116;SDS011;25829;50.228;18.936;2023-09-30T09:04:56;9.82;;;8.32;;
40116;SDS011;25829;50.228;18.936;2023-09-30T09:08:01;9.80;;;7.72;;
40116;SDS011;25829;50.228;18.936;2023-09-30T09:14:46;9.98;;;8.82;;
40116;SDS011;25829;50.228;18.936;2023-09-30T09:18:03;11.23;;;8.55;;
40116;SDS011;25829;50.228;18.936;2023-09-30T09:21:11;14.10;;;8.05;;
40116;SDS011;25829;50.228;18.936;2023-09-30T09:24:31;9.52;;;8.30;;
40116;SDS011;25829;50.228;18.936;2023-09-30T09:27:46;10.35;;;9.23;;
40116;SDS011;25829;50.228;18.936;2023-09-30T09:30:53;11.05;;;8.75;;
40116;SDS011;25829;50.228;18.936;2023-09-30T09:33:55;13.20;;;8.93;;
40116;SDS011;25829;50.228;18.936;2023-09-30T09:36:56;12.93;;;9.63;;
40116;SDS011;25829;50.228;18.936;2023-09-30T09:39:57;13.40;;;9.40;;
40116;SDS011;25829;50.228;18.936;2023-09-30T09:43:02;13.20;;;10.52;;
40116;SDS011;25829;50.228;18.936;2023-09-30T09:46:07;11.63;;;9.27;;
40116;SDS011;25829;50.228;18.936;2023-09-30T09:49:10;11.18;;;9.10;;
40116;SDS011;25829;50.228;18.936;2023-09-30T09:52:12;12.07;;;9.32;;
40116;SDS011;25829;50.228;18.936;2023-09-30T09:55:17;10.63;;;8.63;;
40116;SDS011;25829;50.228;18.936;2023-09-30T09:58:19;10.80;;;9.02;;
40116;SDS011;25829;50.228;18.936;2023-09-30T10:01:20;9.77;;;8.77;;
40116;SDS011;25829;50.228;18.936;2023-09-30T10:04:21;9.27;;;8.38;;
40116;SDS011;25829;50.228;18.936;2023-09-30T10:07:25;8.55;;;7.72;;
40116;SDS011;25829;50.228;18.936;2023-09-30T10:10:31;10.18;;;7.85;;
40116;SDS011;25829;50.228;18.936;2023-09-30T10:17:03;11.75;;;8.10;;
40116;SDS011;25829;50.228;18.936;2023-09-30T10:20:06;10.73;;;7.90;;
40116;SDS011;25829;50.228;18.936;2023-09-30T10:26:37;9.15;;;7.22;;
40116;SDS011;25829;50.228;18.936;2023-09-30T10:29:44;8.70;;;7.35;;
40116;SDS011;25829;50.228;18.936;2023-09-30T10:36:05;9.73;;;7.28;;
40116;SDS011;25829;50.228;18.936;2023-09-30T10:39:06;9.50;;;6.95;;
40116;SDS011;25829;50.228;18.936;2023-09-30T10:45:56;9.77;;;6.88;;
40116;SDS011;25829;50.228;18.936;2023-09-30T10:53:09;7.57;;;5.22;;
40116;SDS011;25829;50.228;18.936;2023-09-30T11:14:45;6.57;;;4.95;;
40116;SDS011;25829;50.228;18.936;2023-09-30T11:23:27;5.65;;;4.30;;
40116;SDS011;25829;50.228;18.936;2023-09-30T11:34:18;5.68;;;3.65;;
40116;SDS011;25829;50.228;18.936;2023-09-30T11:38:04;4.97;;;3.63;;
40116;SDS011;25829;50.228;18.936;2023-09-30T11:52:35;6.00;;;3.58;;
40116;SDS011;25829;50.228;18.936;2023-09-30T11:55:48;8.07;;;3.70;;
40116;SDS011;25829;50.228;18.936;2023-09-30T12:02:36;7.85;;;3.85;;
40116;SDS011;25829;50.228;18.936;2023-09-30T12:12:55;6.00;;;4.00;;
40116;SDS011;25829;50.228;18.936;2023-09-30T12:15:55;6.95;;;3.95;;
40116;SDS011;25829;50.228;18.936;2023-09-30T12:19:03;7.40;;;4.10;;
40116;SDS011;25829;50.228;18.936;2023-09-30T12:26:02;7.13;;;4.43;;
40116;SDS011;25829;50.228;18.936;2023-09-30T12:29:07;6.22;;;4.28;;
40116;SDS011;25829;50.228;18.936;2023-09-30T12:32:10;6.18;;;4.25;;
40116;SDS011;25829;50.228;18.936;2023-09-30T12:35:10;9.45;;;4.30;;
40116;SDS011;25829;50.228;18.936;2023-09-30T12:38:33;8.38;;;4.80;;
40116;SDS011;25829;50.228;18.936;2023-09-30T13:08:05;9.63;;;5.25;;
40116;SDS011;25829;50.228;18.936;2023-09-30T13:11:20;11.55;;;5.43;;
40116;SDS011;25829;50.228;18.936;2023-09-30T13:14:41;6.82;;;4.88;;
40116;SDS011;25829;50.228;18.936;2023-09-30T13:25:19;6.88;;;3.95;;
40116;SDS011;25829;50.228;18.936;2023-09-30T13:33:23;6.85;;;4.35;;
40116;SDS011;25829;50.228;18.936;2023-09-30T13:40:15;6.82;;;4.25;;
40116;SDS011;25829;50.228;18.936;2023-09-30T13:53:49;9.10;;;4.60;;
40116;SDS011;25829;50.228;18.936;2023-09-30T14:00:24;7.32;;;4.28;;
40116;SDS011;25829;50.228;18.936;2023-09-30T14:06:49;6.13;;;3.88;;
40116;SDS011;25829;50.228;18.936;2023-09-30T14:09:50;6.68;;;3.80;;
40116;SDS011;25829;50.228;18.936;2023-09-30T14:12:52;5.32;;;3.63;;
40116;SDS011;25829;50.228;18.936;2023-09-30T14:15:54;8.85;;;3.20;;
40116;SDS011;25829;50.228;18.936;2023-09-30T14:18:58;4.65;;;3.60;;
40116;SDS011;25829;50.228;18.936;2023-09-30T14:21:59;7.70;;;3.72;;
40116;SDS011;25829;50.228;18.936;2023-09-30T14:25:03;6.05;;;3.65;;
40116;SDS011;25829;50.228;18.936;2023-09-30T14:28:08;7.60;;;3.30;;
40116;SDS011;25829;50.228;18.936;2023-09-30T14:31:11;6.78;;;3.72;;
40116;SDS011;25829;50.228;18.936;2023-09-30T14:34:14;4.93;;;3.42;;
40116;SDS011;25829;50.228;18.936;2023-09-30T14:37:31;5.72;;;3.00;;
40116;SDS011;25829;50.228;18.936;2023-09-30T14:43:45;6.22;;;3.65;;
40116;SDS011;25829;50.228;18.936;2023-09-30T14:46:46;6.15;;;2.55;;
40116;SDS011;25829;50.228;18.936;2023-09-30T14:49:53;4.03;;;2.70;;
40116;SDS011;25829;50.228;18.936;2023-09-30T14:52:54;3.92;;;2.65;;
40116;SDS011;25829;50.228;18.936;2023-09-30T14:55:56;8.40;;;3.00;;
40116;SDS011;25829;50.228;18.936;2023-09-30T14:59:12;3.67;;;2.85;;
40116;SDS011;25829;50.228;18.936;2023-09-30T15:02:17;6.45;;;2.35;;
40116;SDS011;25829;50.228;18.936;2023-09-30T15:08:45;4.85;;;2.70;;
40116;SDS011;25829;50.228;18.936;2023-09-30T15:11:59;6.85;;;2.88;;
40116;SDS011;25829;50.228;18.936;2023-09-30T15:15:00;7.15;;;2.58;;
40116;SDS011;25829;50.228;18.936;2023-09-30T15:18:12;6.32;;;2.47;;
40116;SDS011;25829;50.228;18.936;2023-09-30T15:27:49;9.88;;;2.88;;
40116;SDS011;25829;50.228;18.936;2023-09-30T15:30:53;10.88;;;3.45;;
40116;SDS011;25829;50.228;18.936;2023-09-30T15:33:56;6.25;;;2.72;;
40116;SDS011;25829;50.228;18.936;2023-09-30T15:40:41;5.03;;;2.40;;
40116;SDS011;25829;50.228;18.936;2023-09-30T15:48:09;5.03;;;2.80;;
40116;SDS011;25829;50.228;18.936;2023-09-30T15:51:10;7.53;;;3.15;;
40116;SDS011;25829;50.228;18.936;2023-09-30T15:54:11;8.20;;;2.70;;
40116;SDS011;25829;50.228;18.936;2023-09-30T15:57:18;4.72;;;2.70;;
40116;SDS011;25829;50.228;18.936;2023-09-30T16:00:18;5.53;;;3.03;;
40116;SDS011;25829;50.228;18.936;2023-09-30T16:03:19;7.05;;;2.90;;
40116;SDS011;25829;50.228;18.936;2023-09-30T16:06:23;7.45;;;3.00;;
40116;SDS011;25829;50.228;18.936;2023-09-30T16:09:24;7.57;;;3.17;;
40116;SDS011;25829;50.228;18.936;2023-09-30T16:12:25;6.32;;;2.90;;
40116;SDS011;25829;50.228;18.936;2023-09-30T16:15:26;7.05;;;3.20;;
40116;SDS011;25829;50.228;18.936;2023-09-30T16:18:26;7.72;;;3.22;;
40116;SDS011;25829;50.228;18.936;2023-09-30T16:21:31;6.60;;;3.70;;
40116;SDS011;25829;50.228;18.936;2023-09-30T16:24:32;6.88;;;3.78;;
40116;SDS011;25829;50.228;18.936;2023-09-30T16:27:33;7.15;;;4.43;;
40116;SDS011;25829;50.228;18.936;2023-09-30T16:30:37;9.20;;;4.50;;
40116;SDS011;25829;50.228;18.936;2023-09-30T16:33:50;9.10;;;4.43;;
40116;SDS011;25829;50.228;18.936;2023-09-30T16:36:54;9.15;;;4.35;;
40116;SDS011;25829;50.228;18.936;2023-09-30T16:39:55;7.82;;;4.95;;
40116;SDS011;25829;50.228;18.936;2023-09-30T16:43:15;6.28;;;3.97;;
40116;SDS011;25829;50.228;18.936;2023-09-30T16:51:14;7.18;;;3.72;;
40116;SDS011;25829;50.228;18.936;2023-09-30T17:04:08;5.28;;;3.45;;
40116;SDS011;25829;50.228;18.936;2023-09-30T17:07:09;7.68;;;3.70;;
40116;SDS011;25829;50.228;18.936;2023-09-30T17:10:10;6.65;;;3.65;;
40116;SDS011;25829;50.228;18.936;2023-09-30T17:13:12;7.82;;;4.10;;
40116;SDS011;25829;50.228;18.936;2023-09-30T17:16:16;8.60;;;3.72;;
40116;SDS011;25829;50.228;18.936;2023-09-30T17:19:20;5.88;;;3.85;;
40116;SDS011;25829;50.228;18.936;2023-09-30T17:22:21;6.30;;;3.92;;
40116;SDS011;25829;50.228;18.936;2023-09-30T17:25:28;6.95;;;4.45;;
40116;SDS011;25829;50.228;18.936;2023-09-30T17:28:44;11.93;;;5.63;;
40116;SDS011;25829;50.228;18.936;2023-09-30T17:31:58;9.52;;;5.03;;
40116;SDS011;25829;50.228;18.936;2023-09-30T17:35:03;8.95;;;5.88;;
40116;SDS011;25829;50.228;18.936;2023-09-30T17:38:12;12.20;;;4.78;;
40116;SDS011;25829;50.228;18.936;2023-09-30T17:41:29;7.80;;;5.30;;
40116;SDS011;25829;50.228;18.936;2023-09-30T17:44:36;8.25;;;4.40;;
40116;SDS011;25829;50.228;18.936;2023-09-30T17:47:40;6.25;;;4.60;;
40116;SDS011;25829;50.228;18.936;2023-09-30T17:50:40;10.13;;;7.47;;
40116;SDS011;25829;50.228;18.936;2023-09-30T17:53:44;19.55;;;15.02;;
40116;SDS011;25829;50.228;18.936;2023-09-30T17:56:45;15.57;;;11.30;;
40116;SDS011;25829;50.228;18.936;2023-09-30T17:59:46;10.02;;;6.25;;
40116;SDS011;25829;50.228;18.936;2023-09-30T18:02:56;9.10;;;4.90;;
40116;SDS011;25829;50.228;18.936;2023-09-30T18:06:06;6.45;;;3.90;;
40116;SDS011;25829;50.228;18.936;2023-09-30T18:09:10;7.95;;;3.50;;
40116;SDS011;25829;50.228;18.936;2023-09-30T18:12:16;7.80;;;5.25;;
40116;SDS011;25829;50.228;18.936;2023-09-30T18:15:20;12.43;;;9.93;;
40116;SDS011;25829;50.228;18.936;2023-09-30T18:18:30;16.38;;;11.77;;
40116;SDS011;25829;50.228;18.936;2023-09-30T18:21:35;21.38;;;11.45;;
40116;SDS011;25829;50.228;18.936;2023-09-30T18:24:36;14.43;;;9.30;;
40116;SDS011;25829;50.228;18.936;2023-09-30T18:27:37;15.70;;;9.50;;
40116;SDS011;25829;50.228;18.936;2023-09-30T18:30:38;16.35;;;9.63;;
40116;SDS011;25829;50.228;18.936;2023-09-30T18:33:51;19.35;;;13.45;;
40116;SDS011;25829;50.228;18.936;2023-09-30T18:36:52;16.80;;;11.10;;
40116;SDS011;25829;50.228;18.936;2023-09-30T18:39:56;12.77;;;9.40;;
40116;SDS011;25829;50.228;18.936;2023-09-30T18:42:57;10.45;;;7.90;;
40116;SDS011;25829;50.228;18.936;2023-09-30T18:46:06;11.98;;;8.07;;
40116;SDS011;25829;50.228;18.936;2023-09-30T18:52:22;12.15;;;5.90;;
40116;SDS011;25829;50.228;18.936;2023-09-30T19:02:22;6.43;;;4.70;;
40116;SDS011;25829;50.228;18.936;2023-09-30T19:05:24;9.20;;;6.35;;
40116;SDS011;25829;50.228;18.936;2023-09-30T19:08:31;9.38;;;6.43;;
40116;SDS011;25829;50.228;18.936;2023-09-30T19:11:33;12.10;;;6.60;;
40116;SDS011;25829;50.228;18.936;2023-09-30T19:14:37;10.60;;;6.15;;
40116;SDS011;25829;50.228;18.936;2023-09-30T19:17:46;10.82;;;6.22;;
40116;SDS011;25829;50.228;18.936;2023-09-30T19:20:50;7.40;;;5.15;;
40116;SDS011;25829;50.228;18.936;2023-09-30T19:24:01;7.18;;;5.40;;
40116;SDS011;25829;50.228;18.936;2023-09-30T19:27:02;7.22;;;5.57;;
40116;SDS011;25829;50.228;18.936;2023-09-30T19:30:06;8.77;;;5.20;;
40116;SDS011;25829;50.228;18.936;2023-09-30T19:33:08;13.45;;;6.40;;
40116;SDS011;25829;50.228;18.936;2023-09-30T19:36:18;11.02;;;6.13;;
40116;SDS011;25829;50.228;18.936;2023-09-30T19:39:29;9.63;;;5.82;;
40116;SDS011;25829;50.228;18.936;2023-09-30T19:42:36;9.80;;;5.60;;
40116;SDS011;25829;50.228;18.936;2023-09-30T19:45:50;9.30;;;5.60;;
40116;SDS011;25829;50.228;18.936;2023-09-30T19:49:15;7.95;;;5.47;;
40116;SDS011;25829;50.228;18.936;2023-09-30T19:52:22;11.70;;;6.13;;
40116;SDS011;25829;50.228;18.936;2023-09-30T19:55:32;9.75;;;5.90;;
40116;SDS011;25829;50.228;18.936;2023-09-30T19:58:45;11.65;;;6.60;;
40116;SDS011;25829;50.228;18.936;2023-09-30T20:01:54;7.68;;;5.82;;
40116;SDS011;25829;50.228;18.936;2023-09-30T20:04:57;11.63;;;6.63;;
40116;SDS011;25829;50.228;18.936;2023-09-30T20:07:58;8.48;;;6.28;;
40116;SDS011;25829;50.228;18.936;2023-09-30T20:11:17;12.20;;;6.65;;
40116;SDS011;25829;50.228;18.936;2023-09-30T20:14:18;11.00;;;7.57;;
40116;SDS011;25829;50.228;18.936;2023-09-30T20:17:19;13.85;;;7.15;;
40116;SDS011;25829;50.228;18.936;2023-09-30T20:20:28;16.05;;;6.50;;
40116;SDS011;25829;50.228;18.936;2023-09-30T20:23:29;11.77;;;6.78;;
40116;SDS011;25829;50.228;18.936;2023-09-30T20:26:34;11.38;;;6.90;;
40116;SDS011;25829;50.228;18.936;2023-09-30T20:29:35;9.88;;;6.63;;
40116;SDS011;25829;50.228;18.936;2023-09-30T20:32:39;12.48;;;6.97;;
40116;SDS011;25829;50.228;18.936;2023-09-30T20:35:51;10.47;;;6.47;;
40116;SDS011;25829;50.228;18.936;2023-09-30T20:38:52;12.50;;;5.77;;
40116;SDS011;25829;50.228;18.936;2023-09-30T20:41:54;12.00;;;6.55;;
40116;SDS011;25829;50.228;18.936;2023-09-30T20:44:55;10.90;;;5.15;;
40116;SDS011;25829;50.228;18.936;2023-09-30T20:47:56;12.75;;;6.10;;
40116;SDS011;25829;50.228;18.936;2023-09-30T20:50:57;9.25;;;6.60;;
40116;SDS011;25829;50.228;18.936;2023-09-30T20:54:03;16.87;;;7.63;;
40116;SDS011;25829;50.228;18.936;2023-09-30T20:57:04;13.07;;;6.73;;
40116;SDS011;25829;50.228;18.936;2023-09-30T21:04:43;10.07;;;6.03;;
40116;SDS011;25829;50.228;18.936;2023-09-30T21:07:44;12.77;;;6.45;;
40116;SDS011;25829;50.228;18.936;2023-09-30T21:10:45;8.37;;;5.67;;
40116;SDS011;25829;50.228;18.936;2023-09-30T21:13:48;11.00;;;6.33;;
40116;SDS011;25829;50.228;18.936;2023-09-30T21:16:49;12.23;;;5.87;;
40116;SDS011;25829;50.228;18.936;2023-09-30T21:19:50;8.07;;;6.30;;
40116;SDS011;25829;50.228;18.936;2023-09-30T21:22:50;8.23;;;5.77;;
40116;SDS011;25829;50.228;18.936;2023-09-30T21:26:10;10.97;;;6.10;;
40116;SDS011;25829;50.228;18.936;2023-09-30T21:29:14;8.33;;;6.30;;
40116;SDS011;25829;50.228;18.936;2023-09-30T21:32:15;8.83;;;6.10;;
40116;SDS011;25829;50.228;18.936;2023-09-30T21:35:16;11.37;;;6.37;;
40116;SDS011;25829;50.228;18.936;2023-09-30T21:38:16;11.02;;;6.18;;
40116;SDS011;25829;50.228;18.936;2023-09-30T21:41:23;9.93;;;6.23;;
40116;SDS011;25829;50.228;18.936;2023-09-30T21:44:27;11.07;;;4.70;;
40116;SDS011;25829;50.228;18.936;2023-09-30T21:47:31;10.20;;;4.97;;
40116;SDS011;25829;50.228;18.936;2023-09-30T21:50:33;6.53;;;4.37;;
40116;SDS011;25829;50.228;18.936;2023-09-30T21:53:40;7.33;;;4.57;;
40116;SDS011;25829;50.228;18.936;2023-09-30T21:56:41;8.37;;;4.30;;
40116;SDS011;25829;50.228;18.936;2023-09-30T21:59:43;8.33;;;5.63;;
40116;SDS011;25829;50.228;18.936;2023-09-30T22:02:55;6.40;;;4.40;;
40116;SDS011;25829;50.228;18.936;2023-09-30T22:05:56;9.10;;;5.70;;
40116;SDS011;25829;50.228;18.936;2023-09-30T22:09:00;7.60;;;5.20;;
40116;SDS011;25829;50.228;18.936;2023-09-30T22:12:01;8.77;;;5.83;;
40116;SDS011;25829;50.228;18.936;2023-09-30T22:15:12;8.20;;;6.63;;
40116;SDS011;25829;50.228;18.936;2023-09-30T22:18:19;9.97;;;5.87;;
40116;SDS011;25829;50.228;18.936;2023-09-30T22:21:24;11.03;;;5.57;;
40116;SDS011;25829;50.228;18.936;2023-09-30T22:24:26;9.20;;;5.90;;
40116;SDS011;25829;50.228;18.936;2023-09-30T22:32:25;7.80;;;5.93;;
40116;SDS011;25829;50.228;18.936;2023-09-30T22:36:41;9.40;;;5.67;;